Time;durP1;ratioP1;P1;durP2;ratioP2;P2;SDS_P1;SDS_P2;PMS_P1;PMS_P2;Temp;Humidity;BMP_temperature;BMP_pressure;BME280_temperature;BME280_humidity;BME280_pressure;Samples;Min_cycle;Max_cycle;Signal;HPM_P1;HPM_P2
2022/08/21 00:00:20;;;;;;;13.40;7.23;;;18.90;99.90;;;;;;5011605;28;20972;-77
2022/08/21 00:02:50;;;;;;;9.23;7.03;;;18.80;99.90;;;;;;5011190;28;20465;-77
2022/08/21 00:05:18;;;;;;;12.17;7.40;;;18.80;99.90;;;;;;5010969;28;20430;-77
2022/08/21 00:07:44;;;;;;;9.93;6.97;;;18.80;99.90;;;;;;5014417;28;20838;-77
2022/08/21 00:10:12;;;;;;;13.63;8.07;;;18.70;99.90;;;;;;5014999;28;20571;-77
2022/08/21 00:12:39;;;;;;;8.77;6.70;;;18.70;99.90;;;;;;5014936;28;20889;-77
2022/08/21 00:15:11;;;;;;;10.10;6.80;;;18.70;99.90;;;;;;5014426;28;20946;-77
2022/08/21 00:17:38;;;;;;;12.10;7.30;;;18.60;99.90;;;;;;5014668;28;20441;-77
2022/08/21 00:20:06;;;;;;;12.27;7.90;;;18.60;99.90;;;;;;5014493;28;20784;-78
2022/08/21 00:22:33;;;;;;;10.27;7.73;;;18.50;99.90;;;;;;5014654;28;20472;-77
2022/08/21 00:24:59;;;;;;;11.90;7.73;;;18.40;99.90;;;;;;5014466;28;20425;-77
2022/08/21 00:27:26;;;;;;;12.83;6.70;;;18.40;99.90;;;;;;5014664;28;20457;-77
2022/08/21 00:29:55;;;;;;;10.37;6.90;;;18.30;99.90;;;;;;5014476;28;20845;-77
2022/08/21 00:32:24;;;;;;;17.83;7.50;;;18.30;99.90;;;;;;5014394;28;20486;-77
2022/08/21 00:34:52;;;;;;;10.07;7.27;;;18.30;99.90;;;;;;5014432;28;20418;-77
2022/08/21 00:37:18;;;;;;;10.23;6.93;;;18.30;99.90;;;;;;5014353;28;20946;-77
2022/08/21 00:39:45;;;;;;;14.90;7.47;;;18.30;99.90;;;;;;5014389;28;20852;-77
2022/08/21 00:42:14;;;;;;;9.53;7.40;;;18.20;99.90;;;;;;5014327;28;20232;-77
2022/08/21 00:44:41;;;;;;;13.80;8.10;;;18.20;99.90;;;;;;5014269;28;20503;-77
2022/08/21 00:47:08;;;;;;;12.47;7.97;;;18.10;99.90;;;;;;5013898;28;20831;-77
2022/08/21 00:49:36;;;;;;;13.02;8.27;;;18.10;99.90;;;;;;5014324;28;20429;-77
2022/08/21 00:52:05;;;;;;;13.97;8.27;;;18.00;99.90;;;;;;5014097;28;20266;-77
2022/08/21 00:54:33;;;;;;;11.77;7.72;;;18.00;99.90;;;;;;5014014;28;20484;-77
2022/08/21 00:57:02;;;;;;;11.00;7.43;;;18.00;99.90;;;;;;5013989;28;20216;-77
2022/08/21 00:59:32;;;;;;;12.30;8.13;;;17.90;99.90;;;;;;5013779;28;20430;-77
2022/08/21 01:01:59;;;;;;;11.40;7.80;;;17.80;99.90;;;;;;5014174;28;20490;-77
2022/08/21 01:04:26;;;;;;;12.30;8.23;;;17.80;99.90;;;;;;5013769;28;20258;-77
2022/08/21 01:06:54;;;;;;;12.40;7.97;;;17.80;99.90;;;;;;5013782;28;20493;-77
2022/08/21 01:09:21;;;;;;;11.00;8.10;;;17.80;99.90;;;;;;5013846;28;20426;-77
2022/08/21 01:11:48;;;;;;;13.00;8.93;;;17.70;99.90;;;;;;5013658;28;20496;-77
2022/08/21 01:14:17;;;;;;;13.63;8.33;;;17.70;99.90;;;;;;5013427;28;20459;-77
2022/08/21 01:16:48;;;;;;;11.33;8.33;;;17.70;99.90;;;;;;5013431;28;20440;-77
2022/08/21 01:19:16;;;;;;;13.23;8.60;;;17.70;99.90;;;;;;5013535;28;20991;-77
2022/08/21 01:21:44;;;;;;;12.43;8.43;;;17.70;99.90;;;;;;5013590;28;20491;-77
2022/08/21 01:24:12;;;;;;;9.90;8.67;;;17.60;99.90;;;;;;5013515;28;20871;-77
2022/08/21 01:26:40;;;;;;;10.50;8.63;;;17.60;99.90;;;;;;5013133;28;20886;-77
2022/08/21 01:29:12;;;;;;;14.13;8.30;;;17.50;99.90;;;;;;5013552;28;20447;-77
2022/08/21 01:31:40;;;;;;;10.77;8.40;;;17.50;99.90;;;;;;5013472;28;20474;-77
2022/08/21 01:34:08;;;;;;;13.20;8.87;;;17.50;99.90;;;;;;5013378;28;20902;-77
2022/08/21 01:36:35;;;;;;;9.85;7.93;;;17.50;99.90;;;;;;5013055;28;20931;-77
2022/08/21 01:39:05;;;;;;;14.03;7.90;;;17.50;99.90;;;;;;5013006;28;20211;-77
2022/08/21 01:41:32;;;;;;;11.10;7.97;;;17.50;99.90;;;;;;5013427;28;20518;-77
2022/08/21 01:43:58;;;;;;;10.80;8.40;;;17.40;99.90;;;;;;5013253;28;20505;-77
2022/08/21 01:46:25;;;;;;;12.27;8.70;;;17.30;99.90;;;;;;5013084;28;20421;-77
2022/08/21 01:48:52;;;;;;;11.82;8.70;;;17.30;99.90;;;;;;5013189;28;20424;-77
2022/08/21 01:51:19;;;;;;;18.93;8.23;;;17.20;99.90;;;;;;5012889;28;20225;-77
2022/08/21 01:53:45;;;;;;;12.82;8.45;;;17.20;99.90;;;;;;5012888;28;20965;-77
2022/08/21 01:56:16;;;;;;;15.53;8.77;;;17.20;99.90;;;;;;5012905;28;20208;-77
2022/08/21 01:58:46;;;;;;;8.40;7.40;;;17.20;99.90;;;;;;5013067;28;20468;-77
2022/08/21 02:01:13;;;;;;;10.90;8.33;;;17.10;99.90;;;;;;5012624;28;20451;-77
2022/08/21 02:03:40;;;;;;;12.17;8.60;;;17.10;99.90;;;;;;5012807;28;20875;-77
2022/08/21 02:06:12;;;;;;;11.87;9.03;;;17.10;99.90;;;;;;5012403;28;20455;-77
2022/08/21 02:08:39;;;;;;;13.10;8.63;;;17.10;99.90;;;;;;5013019;28;20473;-77
2022/08/21 02:11:07;;;;;;;10.27;8.37;;;17.00;99.90;;;;;;5012667;28;20450;-77
2022/08/21 02:13:35;;;;;;;11.70;8.87;;;17.00;99.90;;;;;;5012737;28;20426;-77
2022/08/21 02:16:02;;;;;;;11.67;8.77;;;17.00;99.90;;;;;;5012291;28;20926;-77
2022/08/21 02:18:29;;;;;;;12.13;8.87;;;17.00;99.90;;;;;;5012421;28;20487;-77
2022/08/21 02:20:56;;;;;;;11.33;8.97;;;16.90;99.90;;;;;;5012419;28;20435;-77
2022/08/21 02:23:22;;;;;;;12.57;9.17;;;16.90;99.90;;;;;;5012591;28;20473;-77
2022/08/21 02:25:49;;;;;;;12.07;9.10;;;16.90;99.90;;;;;;5012301;28;20461;-77
2022/08/21 02:28:16;;;;;;;10.77;9.00;;;16.90;99.90;;;;;;5012304;28;20512;-77
2022/08/21 02:30:46;;;;;;;14.00;9.40;;;16.80;99.90;;;;;;5011939;28;20433;-77
2022/08/21 02:33:13;;;;;;;14.77;9.83;;;16.80;99.90;;;;;;5012098;28;20965;-77
2022/08/21 02:35:42;;;;;;;12.17;8.73;;;16.80;99.90;;;;;;5012032;28;20947;-77
2022/08/21 02:38:11;;;;;;;11.87;8.80;;;16.80;99.90;;;;;;5012439;28;20426;-77
2022/08/21 02:40:41;;;;;;;11.57;8.53;;;16.70;99.90;;;;;;5012221;28;20429;-77
2022/08/21 02:43:08;;;;;;;14.77;9.40;;;16.70;99.90;;;;;;5012003;28;21031;-77
2022/08/21 02:45:36;;;;;;;13.20;9.50;;;16.70;99.90;;;;;;5011799;28;20450;-77
2022/08/21 02:48:06;;;;;;;12.03;8.77;;;16.60;99.90;;;;;;5012291;28;20464;-77
2022/08/21 02:50:35;;;;;;;14.02;9.13;;;16.60;99.90;;;;;;5012238;28;20520;-77
2022/08/21 02:53:03;;;;;;;15.63;8.80;;;16.60;99.90;;;;;;5012181;28;20224;-77
2022/08/21 02:55:31;;;;;;;15.67;9.77;;;16.50;99.90;;;;;;5011737;28;20938;-77
2022/08/21 02:57:59;;;;;;;14.63;9.43;;;16.50;99.90;;;;;;5011997;28;20443;-77
2022/08/21 03:00:29;;;;;;;18.40;9.40;;;16.50;99.90;;;;;;5011800;28;20457;-77
2022/08/21 03:02:56;;;;;;;15.10;9.40;;;16.60;99.90;;;;;;5011808;28;21023;-77
2022/08/21 03:05:25;;;;;;;14.20;9.10;;;16.50;99.90;;;;;;5011656;28;20869;-77
2022/08/21 03:07:52;;;;;;;12.03;9.27;;;16.40;99.90;;;;;;5012071;28;20493;-77
2022/08/21 03:10:20;;;;;;;10.77;9.20;;;16.40;99.90;;;;;;5011886;28;20429;-77
2022/08/21 03:12:47;;;;;;;12.37;9.17;;;16.40;99.90;;;;;;5011777;28;20440;-77
2022/08/21 03:15:17;;;;;;;12.70;9.03;;;16.40;99.90;;;;;;5011928;28;20522;-77
2022/08/21 03:17:44;;;;;;;13.50;9.50;;;16.30;99.90;;;;;;5012112;28;20457;-77
2022/08/21 03:20:12;;;;;;;19.47;9.00;;;16.30;99.90;;;;;;5012010;28;20504;-77
2022/08/21 03:22:40;;;;;;;14.52;8.85;;;16.30;99.90;;;;;;5011800;28;20539;-77
2022/08/21 03:25:08;;;;;;;13.70;9.67;;;16.30;99.90;;;;;;5011519;28;20242;-77
2022/08/21 03:27:36;;;;;;;10.47;7.90;;;16.20;99.90;;;;;;5012095;28;20456;-77
2022/08/21 03:30:05;;;;;;;15.45;8.23;;;16.20;99.90;;;;;;5011899;28;20458;-77
2022/08/21 03:32:32;;;;;;;21.10;10.23;;;16.30;99.90;;;;;;5011749;28;20224;-77
2022/08/21 03:34:59;;;;;;;13.17;8.17;;;16.30;99.90;;;;;;5011579;28;20446;-77
2022/08/21 03:37:27;;;;;;;13.48;9.20;;;16.20;99.90;;;;;;5011543;28;20950;-77
2022/08/21 03:39:55;;;;;;;13.10;8.80;;;16.20;99.90;;;;;;5011492;28;20205;-77
2022/08/21 03:42:22;;;;;;;14.70;9.83;;;16.20;99.90;;;;;;5014270;28;20494;-77
2022/08/21 03:44:49;;;;;;;15.80;9.90;;;15.90;99.90;;;;;;5015551;28;20512;-77
2022/08/21 03:47:15;;;;;;;13.93;9.47;;;15.90;99.90;;;;;;5015460;28;20424;-77
2022/08/21 03:49:42;;;;;;;17.40;10.60;;;15.80;99.90;;;;;;5015450;28;20424;-77
2022/08/21 03:52:09;;;;;;;15.43;10.67;;;15.70;99.90;;;;;;5015337;28;21064;-77
2022/08/21 03:54:35;;;;;;;14.50;9.88;;;15.60;99.90;;;;;;5015223;28;20877;-77
2022/08/21 03:57:03;;;;;;;14.57;10.43;;;15.60;99.90;;;;;;5015250;28;20255;-77
2022/08/21 03:59:30;;;;;;;14.87;9.73;;;15.50;99.90;;;;;;5015138;28;20490;-77
2022/08/21 04:02:00;;;;;;;16.00;9.90;;;15.50;99.90;;;;;;5014851;28;20477;-77
2022/08/21 04:04:28;;;;;;;13.37;9.30;;;15.40;99.90;;;;;;5015125;28;20451;-77
2022/08/21 04:06:55;;;;;;;12.07;8.60;;;15.40;99.90;;;;;;5014560;28;20466;-77
2022/08/21 04:09:22;;;;;;;19.00;9.67;;;15.40;99.90;;;;;;5014994;28;20936;-77
2022/08/21 04:11:49;;;;;;;13.90;9.23;;;15.40;99.90;;;;;;5014898;28;20475;-77
2022/08/21 04:14:18;;;;;;;19.30;9.30;;;15.40;99.90;;;;;;5015162;28;20457;-77
2022/08/21 04:16:45;;;;;;;15.00;10.00;;;15.40;99.90;;;;;;5014684;28;20513;-77
2022/08/21 04:19:13;;;;;;;12.27;9.10;;;15.40;99.90;;;;;;5014789;28;20455;-77
2022/08/21 04:21:41;;;;;;;16.83;9.60;;;15.30;99.90;;;;;;5014634;28;20500;-77
2022/08/21 04:24:09;;;;;;;12.50;8.73;;;15.30;99.90;;;;;;5014826;28;20485;-77
2022/08/21 04:26:36;;;;;;;14.80;8.93;;;15.30;99.90;;;;;;5014407;28;20456;-77
2022/08/21 04:29:04;;;;;;;13.77;9.30;;;15.20;99.90;;;;;;5014661;28;20505;-76
2022/08/21 04:31:33;;;;;;;13.77;9.73;;;15.20;99.90;;;;;;5014375;28;21025;-77
2022/08/21 04:34:00;;;;;;;12.88;9.70;;;15.20;99.90;;;;;;5014892;28;20946;-77
2022/08/21 04:36:27;;;;;;;12.63;9.53;;;15.20;99.90;;;;;;5014579;28;20269;-77
2022/08/21 04:38:53;;;;;;;12.30;9.50;;;15.20;99.90;;;;;;5014589;28;20459;-77
2022/08/21 04:41:20;;;;;;;12.73;9.50;;;15.20;99.90;;;;;;5014324;28;20476;-77
2022/08/21 04:43:47;;;;;;;14.30;9.40;;;15.20;99.90;;;;;;5014280;28;20254;-77
2022/08/21 04:46:14;;;;;;;14.90;9.88;;;15.20;99.90;;;;;;5013960;28;20211;-77
2022/08/21 04:48:42;;;;;;;13.33;9.80;;;15.20;99.90;;;;;;5014105;28;20274;-77
2022/08/21 04:51:12;;;;;;;16.00;9.53;;;15.20;99.90;;;;;;5014044;28;20471;-77
2022/08/21 04:53:44;;;;;;;16.13;10.30;;;15.30;99.90;;;;;;5013753;28;20447;-77
2022/08/21 04:56:13;;;;;;;16.45;10.27;;;15.30;99.90;;;;;;5014119;28;20207;-77
2022/08/21 04:58:42;;;;;;;14.10;9.60;;;15.30;99.90;;;;;;5013979;28;20207;-77
2022/08/21 05:01:19;;;;;;;17.37;10.23;;;15.30;99.90;;;;;;5013668;28;20482;-77
2022/08/21 05:03:49;;;;;;;12.32;9.55;;;15.40;99.90;;;;;;5013962;28;20837;-77
2022/08/21 05:06:16;;;;;;;14.07;10.30;;;15.40;99.90;;;;;;5013675;28;20216;-77
2022/08/21 05:08:46;;;;;;;14.83;10.97;;;15.40;99.90;;;;;;5013958;28;20501;-77
2022/08/21 05:11:13;;;;;;;13.27;10.10;;;15.50;99.90;;;;;;5013794;28;20835;-77
2022/08/21 05:13:41;;;;;;;17.40;10.73;;;15.50;99.90;;;;;;5013436;28;20447;-77
2022/08/21 05:16:08;;;;;;;21.30;11.40;;;15.60;99.90;;;;;;5013614;28;20463;-77
2022/08/21 05:18:35;;;;;;;13.50;10.17;;;15.70;99.90;;;;;;5013523;28;20871;-77
2022/08/21 05:21:03;;;;;;;17.60;10.97;;;15.70;99.90;;;;;;5013648;28;20451;-77
2022/08/21 05:23:29;;;;;;;14.03;10.47;;;15.80;99.90;;;;;;5014072;28;20504;-77
2022/08/21 05:25:57;;;;;;;16.07;10.27;;;15.80;99.90;;;;;;5013071;28;21026;-77
2022/08/21 05:28:24;;;;;;;17.17;11.60;;;16.00;99.90;;;;;;5013479;28;20489;-77
2022/08/21 05:30:50;;;;;;;14.93;10.27;;;16.00;99.90;;;;;;5013849;28;20450;-76
2022/08/21 05:33:17;;;;;;;12.97;10.00;;;16.10;99.90;;;;;;5013176;28;20715;-77
2022/08/21 05:35:43;;;;;;;16.92;9.93;;;16.10;99.90;;;;;;5013198;28;20504;-77
2022/08/21 05:38:12;;;;;;;14.53;10.77;;;16.30;99.90;;;;;;5013161;28;20237;-77
2022/08/21 05:40:38;;;;;;;13.47;10.07;;;16.40;99.90;;;;;;5012965;28;20493;-77
2022/08/21 05:43:05;;;;;;;18.90;10.60;;;16.40;99.90;;;;;;5013152;28;20487;-77
2022/08/21 05:45:34;;;;;;;16.10;10.43;;;16.50;99.90;;;;;;5013079;28;20428;-77
2022/08/21 05:48:07;;;;;;;13.20;10.13;;;16.60;99.90;;;;;;5013104;28;20207;-78
2022/08/21 05:50:35;;;;;;;17.70;8.97;;;16.80;99.90;;;;;;5013273;28;20465;-77
2022/08/21 05:53:01;;;;;;;14.40;9.10;;;17.00;99.90;;;;;;5012813;28;20520;-77
2022/08/21 05:55:29;;;;;;;12.33;9.70;;;17.20;99.90;;;;;;5012992;28;20448;-77
2022/08/21 05:57:56;;;;;;;13.83;9.63;;;17.30;99.90;;;;;;5012748;28;20981;-77
2022/08/21 06:00:24;;;;;;;20.60;10.50;;;17.60;99.90;;;;;;5012963;28;20422;-77
2022/08/21 06:02:51;;;;;;;13.57;10.15;;;17.90;99.90;;;;;;5012641;28;20485;-77
2022/08/21 06:05:18;;;;;;;16.70;9.30;;;18.20;99.90;;;;;;5012030;28;20204;-77
2022/08/21 06:07:45;;;;;;;12.10;9.77;;;18.50;99.90;;;;;;5012454;28;20913;-77
2022/08/21 06:10:12;;;;;;;13.40;9.20;;;18.80;99.90;;;;;;5012934;28;20508;-77
2022/08/21 06:12:40;;;;;;;15.50;9.50;;;18.80;99.90;;;;;;5012836;28;20485;-77
2022/08/21 06:15:08;;;;;;;13.50;9.90;;;18.90;99.90;;;;;;5012448;28;20782;-78
2022/08/21 06:17:34;;;;;;;18.50;9.50;;;19.00;99.90;;;;;;5012793;28;20430;-77
2022/08/21 06:20:01;;;;;;;16.13;9.30;;;19.20;99.90;;;;;;5012515;28;20430;-77
2022/08/21 06:22:28;;;;;;;11.05;8.40;;;19.30;99.90;;;;;;5012154;28;21055;-77
2022/08/21 06:24:55;;;;;;;13.90;9.23;;;19.40;99.90;;;;;;5012326;28;20231;-77
2022/08/21 06:27:21;;;;;;;12.07;8.90;;;19.60;99.90;;;;;;5012211;28;20842;-78
2022/08/21 06:29:50;;;;;;;13.50;9.07;;;19.80;99.90;;;;;;5012410;28;20204;-78
2022/08/21 06:32:16;;;;;;;13.80;8.90;;;20.10;99.90;;;;;;5012238;28;20450;-78
2022/08/21 06:34:43;;;;;;;14.63;9.17;;;20.10;99.90;;;;;;5012145;28;20455;-78
2022/08/21 06:37:09;;;;;;;12.47;8.57;;;20.20;99.90;;;;;;5011950;28;21002;-78
2022/08/21 06:39:36;;;;;;;11.48;8.25;;;20.20;99.90;;;;;;5012552;28;20455;-78
2022/08/21 06:42:03;;;;;;;12.82;8.15;;;20.20;99.90;;;;;;5012040;28;20733;-78
2022/08/21 06:44:30;;;;;;;12.87;9.03;;;20.20;99.90;;;;;;5012164;28;20282;-78
2022/08/21 06:46:58;;;;;;;15.47;9.20;;;20.40;99.90;;;;;;5011959;28;20921;-78
2022/08/21 06:49:25;;;;;;;12.33;8.27;;;20.60;99.90;;;;;;5011996;28;20429;-78
2022/08/21 06:51:51;;;;;;;10.90;7.73;;;20.60;99.90;;;;;;5012475;28;20483;-78
2022/08/21 06:54:18;;;;;;;13.70;7.90;;;20.90;99.90;;;;;;5012171;28;20451;-78
2022/08/21 06:56:45;;;;;;;12.63;8.23;;;21.10;99.90;;;;;;5011683;28;20921;-78
2022/08/21 06:59:11;;;;;;;11.07;7.38;;;21.30;99.90;;;;;;5012110;28;20203;-78
2022/08/21 07:01:39;;;;;;;12.47;7.13;;;21.40;99.90;;;;;;5011932;28;20294;-78
2022/08/21 07:04:07;;;;;;;11.63;7.43;;;21.70;99.90;;;;;;5011659;28;20467;-78
2022/08/21 07:06:34;;;;;;;12.20;7.00;;;22.00;99.90;;;;;;5011854;28;20954;-78
2022/08/21 07:09:01;;;;;;;15.80;8.03;;;22.20;99.90;;;;;;5011999;28;20446;-78
2022/08/21 07:11:28;;;;;;;13.73;8.40;;;22.30;99.90;;;;;;5011948;28;20475;-78
2022/08/21 07:13:56;;;;;;;11.70;7.20;;;22.30;99.90;;;;;;5012055;28;20501;-78
2022/08/21 07:16:23;;;;;;;13.27;7.22;;;22.40;99.90;;;;;;5014678;28;20466;-78
2022/08/21 07:18:50;;;;;;;11.93;8.00;;;22.50;99.90;;;;;;5016021;28;20219;-78
2022/08/21 07:21:18;;;;;;;21.93;8.00;;;22.40;99.90;;;;;;5016352;28;20425;-78
2022/08/21 07:23:48;;;;;;;13.97;7.53;;;22.50;99.90;;;;;;5015844;28;20556;-78
2022/08/21 07:26:17;;;;;;;10.37;7.13;;;22.60;99.90;;;;;;5015677;28;20875;-78
2022/08/21 07:28:44;;;;;;;14.93;6.90;;;22.80;99.90;;;;;;5015540;28;20870;-78
2022/08/21 07:31:13;;;;;;;14.50;6.67;;;22.80;99.90;;;;;;5015440;28;20739;-78
2022/08/21 07:33:41;;;;;;;9.10;6.03;;;22.70;99.90;;;;;;5015718;28;20443;-78
2022/08/21 07:36:08;;;;;;;12.27;7.47;;;22.90;99.90;;;;;;5015680;28;20455;-78
2022/08/21 07:38:37;;;;;;;12.10;7.53;;;23.20;99.90;;;;;;5015760;28;20455;-78
2022/08/21 07:41:14;;;;;;;12.00;7.37;;;23.40;99.90;;;;;;5015989;28;20509;-78
2022/08/21 07:43:42;;;;;;;16.10;7.30;;;23.50;99.90;;;;;;5015370;28;20566;-78
2022/08/21 07:46:09;;;;;;;12.93;6.50;;;23.90;99.90;;;;;;5015741;28;20508;-78
2022/08/21 07:48:35;;;;;;;13.07;7.67;;;23.90;99.90;;;;;;5015559;28;20521;-78
2022/08/21 07:51:06;;;;;;;13.23;6.47;;;23.70;99.90;;;;;;5015448;28;20470;-78
2022/08/21 07:53:33;;;;;;;15.10;6.70;;;23.60;99.90;;;;;;5015522;28;20204;-78
2022/08/21 07:56:01;;;;;;;12.63;6.90;;;23.60;99.90;;;;;;5015579;28;20497;-78
2022/08/21 07:58:28;;;;;;;11.70;6.83;;;23.70;99.90;;;;;;5016693;28;20959;-81
2022/08/21 08:00:54;;;;;;;14.37;6.80;;;23.70;99.90;;;;;;5018009;28;20447;-80
2022/08/21 08:03:21;;;;;;;11.20;6.93;;;23.80;99.90;;;;;;5018531;28;20477;-81
2022/08/21 08:05:47;;;;;;;13.10;6.10;;;24.40;99.90;;;;;;5018267;28;20216;-80
2022/08/21 08:08:14;;;;;;;9.53;6.00;;;24.70;99.90;;;;;;5017704;28;20466;-80
2022/08/21 08:10:42;;;;;;;11.20;6.90;;;25.00;99.90;;;;;;5018112;28;20461;-80
2022/08/21 08:13:10;;;;;;;11.87;6.87;;;25.10;99.90;;;;;;5018216;28;20850;-81
2022/08/21 08:15:37;;;;;;;10.83;6.30;;;25.30;99.90;;;;;;5018163;28;20451;-80
2022/08/21 08:18:04;;;;;;;15.00;6.53;;;25.40;99.90;;;;;;5017933;28;21005;-80
2022/08/21 08:20:31;;;;;;;16.20;6.40;;;25.40;99.90;;;;;;5017437;28;20447;-80
2022/08/21 08:22:58;;;;;;;13.40;6.70;;;25.70;99.90;;;;;;5017331;28;20471;-80
2022/08/21 08:25:26;;;;;;;11.10;6.20;;;25.70;99.90;;;;;;5017084;28;20910;-80
2022/08/21 08:27:52;;;;;;;14.33;6.83;;;25.70;99.90;;;;;;5017015;28;20491;-80
2022/08/21 08:30:23;;;;;;;15.07;5.87;;;25.80;99.90;;;;;;5017570;28;20876;-80
2022/08/21 08:32:50;;;;;;;10.60;5.63;;;25.80;99.90;;;;;;5018173;28;20569;-80
2022/08/21 08:35:17;;;;;;;11.40;6.50;;;25.90;99.90;;;;;;5017812;28;20876;-80
2022/08/21 08:37:45;;;;;;;8.20;5.63;;;25.90;99.90;;;;;;5017183;28;20458;-80
2022/08/21 08:40:18;;;;;;;10.53;5.80;;;26.00;99.90;;;;;;5017112;28;20520;-80
2022/08/21 08:42:46;;;;;;;17.20;6.05;;;25.90;99.90;;;;;;5017727;28;20501;-80
2022/08/21 08:45:16;;;;;;;10.07;5.77;;;26.10;99.90;;;;;;5017395;28;20232;-80
2022/08/21 08:47:47;;;;;;;8.80;5.07;;;26.20;99.90;;;;;;5017784;28;20542;-80
2022/08/21 08:50:20;;;;;;;9.43;6.50;;;26.20;99.90;;;;;;5017638;28;20514;-80
2022/08/21 08:52:50;;;;;;;16.65;5.13;;;26.10;99.90;;;;;;5017102;28;20558;-80
2022/08/21 08:55:20;;;;;;;21.93;5.67;;;26.20;99.90;;;;;;5017167;28;20204;-80
2022/08/21 08:57:50;;;;;;;16.08;5.72;;;26.30;99.90;;;;;;5017229;28;20537;-80
2022/08/21 09:00:20;;;;;;;17.37;5.03;;;26.70;99.90;;;;;;5017580;28;20594;-80
2022/08/21 09:02:49;;;;;;;9.10;4.22;;;27.30;99.90;;;;;;5016601;28;20466;-80
2022/08/21 09:05:22;;;;;;;13.17;4.70;;;27.60;99.90;;;;;;5015972;28;20282;-80
2022/08/21 09:07:59;;;;;;;11.53;5.60;;;27.40;99.90;;;;;;5016754;28;20459;-80
2022/08/21 09:10:35;;;;;;;9.63;4.70;;;27.40;99.90;;;;;;5016195;28;20447;-80
2022/08/21 09:13:11;;;;;;;16.07;5.00;;;27.40;99.90;;;;;;5016359;28;20562;-80
2022/08/21 09:15:47;;;;;;;9.50;5.20;;;27.40;99.90;;;;;;5016082;28;20872;-80
2022/08/21 09:18:28;;;;;;;11.80;5.23;;;27.60;99.90;;;;;;5016459;28;20458;-80
2022/08/21 09:21:09;;;;;;;12.47;4.77;;;27.70;99.90;;;;;;5016372;28;20541;-80
2022/08/21 09:23:50;;;;;;;11.68;4.28;;;27.80;99.90;;;;;;5015829;28;20469;-80
2022/08/21 09:26:19;;;;;;;8.80;3.60;;;28.00;99.90;;;;;;5016151;28;20210;-80
2022/08/21 09:28:52;;;;;;;10.33;4.17;;;28.00;99.90;;;;;;5015674;28;20450;-81
2022/08/21 09:31:25;;;;;;;15.20;4.13;;;28.10;99.90;;;;;;5015897;28;20454;-80
2022/08/21 09:33:59;;;;;;;8.65;3.50;;;28.10;99.90;;;;;;5015883;28;21033;-80
2022/08/21 09:36:32;;;;;;;9.90;4.30;;;27.80;99.90;;;;;;5015728;28;20306;-80
2022/08/21 09:38:58;;;;;;;11.33;3.90;;;27.50;99.90;;;;;;5015716;28;20539;-80
2022/08/21 09:41:30;;;;;;;9.95;3.92;;;27.40;99.90;;;;;;5015595;28;20544;-81
2022/08/21 09:43:57;;;;;;;16.17;4.67;;;27.70;99.90;;;;;;5015816;28;20294;-80
2022/08/21 09:46:27;;;;;;;6.43;3.37;;;28.10;99.90;;;;;;5015010;28;20458;-81
2022/08/21 09:48:57;;;;;;;10.10;3.87;;;28.40;99.50;;;;;;5015857;28;20482;-80
2022/08/21 09:51:26;;;;;;;6.03;3.63;;;28.70;99.60;;;;;;5015866;28;20486;-80
2022/08/21 09:53:55;;;;;;;9.07;3.97;;;28.90;98.20;;;;;;5015686;28;20451;-80
2022/08/21 09:59:19;;;;;;;8.97;4.07;;;28.40;96.80;;;;;;5015332;28;20947;-80
2022/08/21 10:01:48;;;;;;;12.53;4.33;;;27.80;97.80;;;;;;5015736;28;20503;-82
2022/08/21 10:04:21;;;;;;;10.07;4.10;;;27.70;98.50;;;;;;5015136;28;20536;-80
2022/08/21 10:06:48;;;;;;;5.20;3.43;;;28.00;98.60;;;;;;5015607;28;20446;-80
2022/08/21 10:09:17;;;;;;;7.73;3.47;;;28.50;97.70;;;;;;5016199;28;20455;-80
2022/08/21 10:11:53;;;;;;;6.70;3.10;;;28.50;95.50;;;;;;5015679;28;20619;-80
2022/08/21 10:14:44;;;;;;;6.37;3.13;;;28.00;94.80;;;;;;5015379;28;20934;-80
2022/08/21 10:17:19;;;;;;;7.25;3.33;;;27.40;95.60;;;;;;5015191;28;20805;-80
2022/08/21 10:19:56;;;;;;;9.87;4.07;;;27.00;95.90;;;;;;5015049;28;20243;-82
2022/08/21 10:22:34;;;;;;;7.17;3.60;;;26.80;97.20;;;;;;5015558;28;20471;-80
2022/08/21 10:25:09;;;;;;;9.88;3.63;;;27.00;97.50;;;;;;5012436;28;20494;-80
2022/08/21 10:27:46;;;;;;;9.57;3.63;;;27.50;96.20;;;;;;5012724;28;20207;-81
2022/08/21 10:30:17;;;;;;;13.65;3.85;;;28.10;96.90;;;;;;5012554;28;20449;-80
2022/08/21 10:33:12;;;;;;;8.30;3.20;;;28.50;96.10;;;;;;5013087;28;20232;-78
2022/08/21 10:35:51;;;;;;;4.47;3.40;;;28.80;95.70;;;;;;5011449;28;20477;-79
2022/08/21 10:38:50;;;;;;;7.23;3.60;;;29.20;95.40;;;;;;5014837;28;20451;-79
2022/08/21 10:41:29;;;;;;;13.70;3.73;;;29.30;95.00;;;;;;5014452;28;20500;-80
2022/08/21 10:44:05;;;;;;;12.18;3.80;;;29.70;94.30;;;;;;5014543;28;20454;-80
2022/08/21 10:46:43;;;;;;;5.90;3.50;;;29.90;93.80;;;;;;5014260;28;20203;-79
2022/08/21 10:49:21;;;;;;;11.43;3.17;;;30.30;92.60;;;;;;5014208;28;20496;-81
2022/08/21 10:51:55;;;;;;;7.40;2.97;;;30.30;92.90;;;;;;5013123;28;20994;-79
2022/08/21 10:54:30;;;;;;;4.30;2.53;;;30.30;92.30;;;;;;5013966;28;20447;-79
2022/08/21 10:57:03;;;;;;;4.93;3.00;;;30.40;92.30;;;;;;5014398;28;20988;-80
2022/08/21 10:59:38;;;;;;;6.60;3.65;;;30.70;93.00;;;;;;5014662;28;20446;-79
2022/08/21 11:02:13;;;;;;;6.37;3.43;;;30.90;92.20;;;;;;5015259;28;20274;-80
2022/08/21 11:04:51;;;;;;;5.70;3.30;;;30.40;90.90;;;;;;5015825;28;20753;-79
2022/08/21 11:07:26;;;;;;;7.33;3.10;;;29.80;90.60;;;;;;5016192;28;20446;-80
2022/08/21 11:09:56;;;;;;;5.60;3.23;;;29.30;91.20;;;;;;5014722;28;20517;-79
2022/08/21 11:12:31;;;;;;;5.47;2.70;;;29.10;91.40;;;;;;5013023;28;20479;-79
2022/08/21 11:15:02;;;;;;;7.10;2.95;;;29.40;91.40;;;;;;5011852;28;20445;-78
2022/08/21 11:17:35;;;;;;;5.35;2.80;;;29.50;90.70;;;;;;5012034;28;20211;-78
2022/08/21 11:20:08;;;;;;;5.97;3.00;;;29.50;91.40;;;;;;5011996;28;20614;-79
2022/08/21 11:22:41;;;;;;;4.90;3.40;;;29.60;91.10;;;;;;5011717;28;21065;-79
2022/08/21 11:25:14;;;;;;;7.83;3.10;;;30.10;90.60;;;;;;5011506;28;20984;-79
2022/08/21 11:27:46;;;;;;;4.40;2.47;;;30.50;90.00;;;;;;5011885;28;20870;-79
2022/08/21 11:30:14;;;;;;;7.13;2.73;;;30.80;90.10;;;;;;5012003;28;20482;-79
2022/08/21 11:33:05;;;;;;;4.75;2.42;;;31.00;87.00;;;;;;5011826;28;20470;-81
2022/08/21 11:35:39;;;;;;;4.83;2.03;;;30.90;85.00;;;;;;5011756;28;20204;-79
2022/08/21 11:38:25;;;;;;;5.90;2.80;;;30.40;85.90;;;;;;5011886;28;20454;-79
2022/08/21 11:41:07;;;;;;;6.90;2.33;;;30.50;86.50;;;;;;5011853;28;20449;-79
2022/08/21 11:43:39;;;;;;;3.47;2.30;;;30.70;86.30;;;;;;5013311;28;20443;-80
2022/08/21 11:46:18;;;;;;;4.30;2.10;;;30.90;83.40;;;;;;5013697;28;20486;-78
2022/08/21 11:48:55;;;;;;;6.32;2.25;;;31.30;85.50;;;;;;5011777;28;20262;-79
2022/08/21 11:51:27;;;;;;;4.00;2.23;;;31.80;83.80;;;;;;5011486;28;20244;-79
2022/08/21 11:54:04;;;;;;;4.77;2.10;;;32.10;82.30;;;;;;5011817;28;20457;-79
2022/08/21 11:56:35;;;;;;;2.60;1.93;;;32.60;79.50;;;;;;5011520;28;20465;-79
2022/08/21 11:59:10;;;;;;;5.27;2.43;;;32.90;81.30;;;;;;5011750;28;20505;-79
2022/08/21 12:01:41;;;;;;;3.28;2.15;;;32.80;78.40;;;;;;5011559;28;20474;-79
2022/08/21 12:04:16;;;;;;;8.60;2.30;;;32.80;78.60;;;;;;5015097;28;20230;-79
2022/08/21 12:06:43;;;;;;;3.37;2.30;;;32.80;79.20;;;;;;5015033;28;20490;-79
2022/08/21 12:09:31;;;;;;;4.70;2.30;;;33.20;79.30;;;;;;5015243;28;20462;-79
2022/08/21 12:12:04;;;;;;;4.03;2.03;;;33.20;76.30;;;;;;5014889;28;20235;-79
2022/08/21 12:14:39;;;;;;;6.20;2.47;;;33.20;75.90;;;;;;5014906;28;20446;-79
2022/08/21 12:17:07;;;;;;;3.72;2.53;;;33.10;76.70;;;;;;5015389;28;20449;-79
2022/08/21 12:19:34;;;;;;;4.78;2.40;;;33.10;75.90;;;;;;5014997;28;20211;-79
2022/08/21 12:22:11;;;;;;;4.63;2.50;;;33.30;75.50;;;;;;5014722;28;20266;-79
2022/08/21 12:24:41;;;;;;;17.10;2.30;;;33.40;74.10;;;;;;5014686;28;20445;-79
2022/08/21 12:27:24;;;;;;;6.53;2.73;;;33.50;73.50;;;;;;5014427;28;20462;-79
2022/08/21 12:29:54;;;;;;;8.10;2.33;;;33.40;74.60;;;;;;5014690;28;20454;-80
2022/08/21 12:32:26;;;;;;;10.20;2.90;;;33.50;74.30;;;;;;5014631;28;20473;-79
2022/08/21 12:34:58;;;;;;;5.22;2.72;;;33.40;74.20;;;;;;5014436;28;20447;-79
2022/08/21 12:37:35;;;;;;;6.57;2.30;;;33.10;75.10;;;;;;5014343;28;20666;-80
2022/08/21 12:40:10;;;;;;;3.73;1.87;;;33.20;73.60;;;;;;5014600;28;20461;-79
2022/08/21 12:42:42;;;;;;;7.75;2.63;;;33.30;71.20;;;;;;5014484;28;20551;-79
2022/08/21 12:45:17;;;;;;;3.90;2.30;;;33.40;73.10;;;;;;5014061;28;20223;-79
2022/08/21 12:47:49;;;;;;;3.47;2.10;;;33.50;74.50;;;;;;5013973;28;20451;-79
2022/08/21 12:50:21;;;;;;;3.83;2.23;;;33.50;74.60;;;;;;5014130;28;21025;-79
2022/08/21 12:52:56;;;;;;;7.67;2.93;;;33.60;73.90;;;;;;5014279;28;20478;-79